createdAt,value
2024-01-17T00:01:48.181Z,98181.22
2024-01-17T00:04:16.638Z,98178.03
2024-01-17T00:06:44.115Z,98171.31
2024-01-17T00:09:11.632Z,98167.31
2024-01-17T00:11:39.565Z,98173.47
2024-01-17T00:14:07.041Z,98165.72
2024-01-17T00:16:34.803Z,98161.00
2024-01-17T00:19:02.933Z,98164.63
2024-01-17T00:21:30.447Z,98171.19
2024-01-17T00:23:58.007Z,98169.47
2024-01-17T00:26:25.853Z,98159.44
2024-01-17T00:28:53.330Z,98165.09
2024-01-17T00:31:22.019Z,98164.91
2024-01-17T00:33:54.173Z,98168.56
2024-01-17T00:36:21.783Z,98162.47
2024-01-17T00:38:49.863Z,98158.25
2024-01-17T00:41:18.941Z,98155.34
2024-01-17T00:43:46.576Z,98160.19
2024-01-17T00:46:14.445Z,98150.34
2024-01-17T00:48:42.300Z,98144.00
2024-01-17T00:51:22.686Z,98146.34
2024-01-17T00:53:50.450Z,98146.50
2024-01-17T00:56:17.964Z,98138.75
2024-01-17T00:58:45.414Z,98132.47
2024-01-17T01:01:13.222Z,98146.63
2024-01-17T01:03:41.687Z,98143.94
2024-01-17T01:06:09.258Z,98144.25
2024-01-17T01:08:37.099Z,98144.34
2024-01-17T01:11:04.657Z,98146.41
2024-01-17T01:13:32.057Z,98136.19
2024-01-17T01:15:59.781Z,98142.25
2024-01-17T01:18:27.533Z,98143.41
2024-01-17T01:20:55.202Z,98140.72
2024-01-17T01:23:25.797Z,98130.59
2024-01-17T01:25:53.409Z,98136.31
2024-01-17T01:28:21.253Z,98135.19
2024-01-17T01:30:49.064Z,98140.59
2024-01-17T01:33:16.682Z,98132.75
2024-01-17T01:35:44.263Z,98125.41
2024-01-17T01:38:13.921Z,98124.41
2024-01-17T01:40:43.650Z,98116.72
2024-01-17T01:43:18.984Z,98116.97
2024-01-17T01:46:12.549Z,98102.38
2024-01-17T01:48:41.507Z,98098.91
2024-01-17T01:51:13.144Z,98092.50
2024-01-17T01:53:43.652Z,98090.97
2024-01-17T01:56:13.727Z,98094.53
2024-01-17T01:58:44.394Z,98080.72
2024-01-17T02:01:12.733Z,98076.22
2024-01-17T02:03:44.158Z,98065.72
2024-01-17T02:06:13.878Z,98064.34
2024-01-17T02:08:42.074Z,98060.78
2024-01-17T02:11:10.051Z,98053.16
2024-01-17T02:13:37.807Z,98068.59
2024-01-17T02:16:07.033Z,98067.38
2024-01-17T02:18:34.841Z,98070.56
2024-01-17T02:21:05.653Z,98055.78
2024-01-17T02:23:38.023Z,98051.06
2024-01-17T02:26:05.708Z,98052.72
2024-01-17T02:28:33.659Z,98055.19
2024-01-17T02:31:07.393Z,98054.03
2024-01-17T02:33:35.425Z,98053.78
2024-01-17T02:36:03.164Z,98053.19
2024-01-17T02:38:30.629Z,98038.47
2024-01-17T02:40:58.339Z,98047.50
2024-01-17T02:43:28.823Z,98046.53
2024-01-17T02:45:56.294Z,98049.81
2024-01-17T02:48:24.211Z,98044.41
2024-01-17T02:50:51.778Z,98041.47
2024-01-17T02:53:21.347Z,98037.34
2024-01-17T02:55:49.035Z,98043.28
2024-01-17T02:58:17.361Z,98039.06
2024-01-17T03:00:45.125Z,98043.41
2024-01-17T03:03:13.047Z,98043.34
2024-01-17T03:05:40.564Z,98039.69
2024-01-17T03:08:08.103Z,98046.28
2024-01-17T03:10:36.654Z,98038.69
2024-01-17T03:13:04.292Z,98035.59
2024-01-17T03:15:31.871Z,98040.03
2024-01-17T03:18:03.244Z,98032.34
2024-01-17T03:20:31.398Z,98034.84
2024-01-17T03:22:59.107Z,98025.38
2024-01-17T03:25:27.092Z,98015.19
2024-01-17T03:27:54.542Z,98014.31
2024-01-17T03:30:22.871Z,98008.34
2024-01-17T03:32:52.572Z,98017.75
2024-01-17T03:35:20.046Z,97999.28
2024-01-17T03:37:48.053Z,98001.06
2024-01-17T03:40:15.548Z,97990.81
2024-01-17T03:42:43.003Z,97986.63
2024-01-17T03:45:11.113Z,97985.34
2024-01-17T03:47:39.264Z,97970.75
2024-01-17T03:50:07.001Z,97969.53
2024-01-17T03:52:34.762Z,97980.53
2024-01-17T03:55:02.268Z,97984.06
2024-01-17T03:57:29.720Z,97977.47
2024-01-17T03:59:57.495Z,97977.41
2024-01-17T04:02:26.753Z,97978.94
2024-01-17T04:04:54.530Z,97968.72
2024-01-17T04:07:23.688Z,97970.28
2024-01-17T04:09:51.217Z,97972.03
2024-01-17T04:12:21.931Z,97968.84
2024-01-17T04:14:49.610Z,97959.44
2024-01-17T04:17:17.497Z,97946.56
2024-01-17T04:19:45.470Z,97953.38
2024-01-17T04:22:13.370Z,97939.25
2024-01-17T04:24:40.805Z,97928.22
2024-01-17T04:27:08.799Z,97926.38
2024-01-17T04:29:36.882Z,97916.34
2024-01-17T04:32:04.575Z,97919.25
2024-01-17T04:34:32.361Z,97921.09
2024-01-17T04:36:59.850Z,97916.75
2024-01-17T04:39:29.391Z,97909.97
2024-01-17T04:41:57.764Z,97912.59
2024-01-17T04:44:25.335Z,97911.00
2024-01-17T04:46:53.028Z,97921.88
2024-01-17T04:49:20.928Z,97913.75
2024-01-17T04:51:48.584Z,97906.72
2024-01-17T04:54:16.717Z,97915.41
2024-01-17T04:56:44.442Z,97917.22
2024-01-17T04:59:12.400Z,97918.94
2024-01-17T05:01:39.893Z,97915.56
2024-01-17T05:04:09.610Z,97909.56
2024-01-17T05:06:37.281Z,97909.00
2024-01-17T05:09:08.855Z,97908.88
2024-01-17T05:11:36.971Z,97911.72
2024-01-17T05:14:04.677Z,97916.69
2024-01-17T05:16:32.113Z,97909.91
2024-01-17T05:18:59.925Z,97896.16
2024-01-17T05:21:27.493Z,97894.91
2024-01-17T05:23:54.943Z,97903.31
2024-01-17T05:26:22.675Z,97895.44
2024-01-17T05:28:50.170Z,97896.28
2024-01-17T05:31:17.953Z,97910.72
2024-01-17T05:33:47.189Z,97895.94
2024-01-17T05:36:14.885Z,97905.59
2024-01-17T05:38:42.434Z,97914.06
2024-01-17T05:41:11.128Z,97897.19
2024-01-17T05:43:38.554Z,97885.78
2024-01-17T05:46:06.056Z,97888.56
2024-01-17T05:48:33.995Z,97884.31
2024-01-17T05:51:01.629Z,97886.12
2024-01-17T05:53:28.609Z,97900.62
2024-01-17T05:55:56.403Z,97893.06
2024-01-17T05:58:24.407Z,97884.97
2024-01-17T06:00:51.878Z,97888.97
2024-01-17T06:03:20.243Z,97881.97
2024-01-17T06:05:48.225Z,97869.09
2024-01-17T06:08:15.763Z,97881.09
2024-01-17T06:10:43.619Z,97882.66
2024-01-17T06:13:11.118Z,97880.22
2024-01-17T06:15:38.534Z,97878.78
2024-01-17T06:18:14.337Z,97858.56
2024-01-17T06:20:41.885Z,97868.66
2024-01-17T06:23:09.636Z,97857.47
2024-01-17T06:25:37.031Z,97866.72
2024-01-17T06:28:04.729Z,97862.44
2024-01-17T06:30:32.579Z,97874.25
2024-01-17T06:33:01.594Z,97867.87
2024-01-17T06:35:29.585Z,97860.03
2024-01-17T06:37:57.267Z,97869.38
2024-01-17T06:40:27.124Z,97865.16
2024-01-17T06:42:55.553Z,97877.38
2024-01-17T06:45:23.348Z,97888.38
2024-01-17T06:47:50.905Z,97886.78
2024-01-17T06:50:20.270Z,97883.78
2024-01-17T06:52:48.025Z,97870.47
2024-01-17T06:55:18.644Z,97869.53
2024-01-17T06:57:46.577Z,97862.16
2024-01-17T07:00:17.107Z,97867.13
2024-01-17T07:02:46.437Z,97859.97
2024-01-17T07:05:14.945Z,97855.69
2024-01-17T07:07:42.382Z,97853.50
2024-01-17T07:10:10.160Z,97857.81
2024-01-17T07:12:37.874Z,97852.81
2024-01-17T07:15:06.214Z,97840.91
2024-01-17T07:17:33.770Z,97840.59
2024-01-17T07:20:01.909Z,97826.06
2024-01-17T07:22:29.468Z,97829.16
2024-01-17T07:24:57.215Z,97828.31
2024-01-17T07:27:24.993Z,97832.97
2024-01-17T07:29:52.759Z,97832.62
2024-01-17T07:32:20.241Z,97817.56
2024-01-17T07:34:49.067Z,97819.16
2024-01-17T07:37:18.148Z,97830.81
2024-01-17T07:39:48.736Z,97825.69
2024-01-17T07:42:19.583Z,97822.91
2024-01-17T07:44:47.217Z,97822.59
2024-01-17T07:47:16.437Z,97821.56
2024-01-17T07:49:45.860Z,97816.94
2024-01-17T07:52:13.311Z,97808.28
2024-01-17T07:54:42.761Z,97808.34
2024-01-17T07:57:10.264Z,97805.72
2024-01-17T07:59:40.307Z,97810.38
2024-01-17T08:02:08.043Z,97820.41
2024-01-17T08:04:37.589Z,97818.88
2024-01-17T08:07:05.062Z,97815.44
2024-01-17T08:09:35.495Z,97821.69
2024-01-17T08:12:05.709Z,97826.41
2024-01-17T08:14:34.593Z,97828.69
2024-01-17T08:17:04.026Z,97828.09
2024-01-17T08:19:31.920Z,97825.06
2024-01-17T08:22:05.260Z,97815.44
2024-01-17T08:24:33.409Z,97815.44
2024-01-17T08:27:01.966Z,97818.88
2024-01-17T08:29:31.436Z,97819.19
2024-01-17T08:31:59.546Z,97811.13
2024-01-17T08:34:27.142Z,97812.56
2024-01-17T08:36:55.782Z,97805.09
2024-01-17T08:39:24.087Z,97805.84
2024-01-17T08:41:51.655Z,97798.53
2024-01-17T08:44:20.335Z,97802.38
2024-01-17T08:46:49.197Z,97804.06
2024-01-17T08:49:16.716Z,97793.25
2024-01-17T08:51:48.596Z,97788.63
2024-01-17T08:54:16.309Z,97792.41
2024-01-17T08:56:47.631Z,97800.47
2024-01-17T08:59:15.105Z,97789.22
2024-01-17T09:01:43.479Z,97777.13
2024-01-17T09:04:13.597Z,97784.69
2024-01-17T09:06:41.164Z,97779.78
2024-01-17T09:09:16.422Z,97769.41
2024-01-17T09:11:44.868Z,97763.38
2024-01-17T09:14:13.840Z,97771.00
2024-01-17T09:16:41.540Z,97761.41
2024-01-17T09:19:09.179Z,97755.53
2024-01-17T09:21:37.129Z,97744.31
2024-01-17T09:24:04.338Z,97728.94
2024-01-17T09:26:32.158Z,97727.84
2024-01-17T09:29:01.649Z,97735.91
2024-01-17T09:31:30.911Z,97729.34
2024-01-17T09:34:00.583Z,97710.75
2024-01-17T09:36:28.542Z,97720.91
2024-01-17T09:38:56.217Z,97707.94
2024-01-17T09:41:23.750Z,97710.75
2024-01-17T09:43:51.567Z,97703.94
2024-01-17T09:46:19.829Z,97691.59
2024-01-17T09:48:48.345Z,97680.66
2024-01-17T09:51:19.765Z,97670.47
2024-01-17T09:53:52.810Z,97658.53
2024-01-17T09:56:29.973Z,97661.50
2024-01-17T09:59:10.512Z,97653.41
2024-01-17T10:01:38.613Z,97656.78
2024-01-17T10:04:06.579Z,97659.00
2024-01-17T10:06:40.759Z,97646.34
2024-01-17T10:09:10.136Z,97642.72
2024-01-17T10:11:37.603Z,97642.31
2024-01-17T10:14:09.336Z,97636.50
2024-01-17T10:16:39.202Z,97613.19
2024-01-17T10:19:07.272Z,97602.31
2024-01-17T10:21:35.572Z,97601.56
2024-01-17T10:24:07.896Z,97591.56
2024-01-17T10:26:36.105Z,97586.66
2024-01-17T10:29:03.982Z,97580.50
2024-01-17T10:31:32.118Z,97585.16
2024-01-17T10:34:02.033Z,97583.84
2024-01-17T10:36:30.067Z,97585.06
2024-01-17T10:39:05.065Z,97588.28
2024-01-17T10:41:34.390Z,97573.38
2024-01-17T10:44:03.755Z,97577.09
2024-01-17T10:46:31.717Z,97559.53
2024-01-17T10:49:00.803Z,97553.94
2024-01-17T10:51:33.092Z,97549.13
2024-01-17T10:54:01.647Z,97541.91
2024-01-17T10:56:30.947Z,97538.91
2024-01-17T10:59:00.058Z,97520.03
2024-01-17T11:01:34.827Z,97519.75
2024-01-17T11:04:24.404Z,97515.75
2024-01-17T11:06:53.189Z,97512.81
2024-01-17T11:09:23.171Z,97499.41
2024-01-17T11:11:50.871Z,97491.31
2024-01-17T11:14:19.964Z,97475.47
2024-01-17T11:16:49.872Z,97473.97
2024-01-17T11:19:18.745Z,97479.28
2024-01-17T11:21:47.308Z,97472.84
2024-01-17T11:24:59.358Z,97475.94
2024-01-17T11:27:34.915Z,97470.47
2024-01-17T11:30:14.708Z,97468.22
2024-01-17T11:32:42.575Z,97445.47
2024-01-17T11:35:11.002Z,97450.72
2024-01-17T11:37:40.400Z,97448.13
2024-01-17T11:40:08.964Z,97435.47
2024-01-17T11:42:38.849Z,97437.22
2024-01-17T11:45:13.771Z,97427.31
2024-01-17T11:47:53.163Z,97434.09
2024-01-17T11:50:24.621Z,97416.66
2024-01-17T11:52:56.998Z,97411.03
2024-01-17T11:55:50.657Z,97413.75
2024-01-17T11:58:17.973Z,97406.38
2024-01-17T12:00:46.586Z,97401.41
2024-01-17T12:03:33.379Z,97397.84
2024-01-17T12:06:02.030Z,97388.50
2024-01-17T12:08:30.933Z,97383.97
2024-01-17T12:11:01.693Z,97373.41
2024-01-17T12:13:28.893Z,97367.03
2024-01-17T12:15:57.828Z,97361.78
2024-01-17T12:18:27.056Z,97358.66
2024-01-17T12:21:02.822Z,97351.75
2024-01-17T12:23:32.280Z,97352.06
2024-01-17T12:26:00.546Z,97342.84
2024-01-17T12:28:30.885Z,97324.00
2024-01-17T12:31:06.901Z,97324.53
2024-01-17T12:33:35.823Z,97324.53
2024-01-17T12:36:05.587Z,97315.91
2024-01-17T12:38:40.711Z,97313.84
2024-01-17T12:41:11.467Z,97308.50
2024-01-17T12:43:39.077Z,97294.91
2024-01-17T12:46:08.405Z,97297.59
2024-01-17T12:48:36.913Z,97285.84
2024-01-17T12:51:09.265Z,97293.25
2024-01-17T12:53:41.009Z,97290.56
2024-01-17T12:56:13.047Z,97295.63
2024-01-17T12:58:40.788Z,97292.34
2024-01-17T13:01:15.357Z,97294.91
2024-01-17T13:03:46.007Z,97298.28
2024-01-17T13:06:14.732Z,97304.25
2024-01-17T13:08:42.812Z,97281.97
2024-01-17T13:11:17.580Z,97277.44
2024-01-17T13:13:44.989Z,97282.78
2024-01-17T13:16:15.175Z,97292.16
2024-01-17T13:18:44.330Z,97281.63
2024-01-17T13:21:14.361Z,97274.16
2024-01-17T13:23:48.115Z,97278.44
2024-01-17T13:26:15.417Z,97268.16
2024-01-17T13:28:42.379Z,97251.25
2024-01-17T13:31:24.621Z,97263.50
2024-01-17T13:33:53.197Z,97267.94
2024-01-17T13:36:21.346Z,97252.09
2024-01-17T13:38:50.172Z,97246.94
2024-01-17T13:41:17.479Z,97238.72
2024-01-17T13:43:45.127Z,97254.19
2024-01-17T13:46:14.396Z,97256.66
2024-01-17T13:48:42.848Z,97265.06
2024-01-17T13:51:23.565Z,97246.16
2024-01-17T13:53:54.907Z,97268.78
2024-01-17T13:56:22.236Z,97246.16
2024-01-17T13:58:50.892Z,97255.31
2024-01-17T14:01:20.357Z,97233.59
2024-01-17T14:03:48.462Z,97233.50
2024-01-17T14:06:16.244Z,97235.03
2024-01-17T14:08:43.468Z,97246.78
2024-01-17T14:11:14.454Z,97239.06
2024-01-17T14:13:43.831Z,97230.53
2024-01-17T14:16:11.691Z,97230.72
2024-01-17T14:18:39.170Z,97232.38
2024-01-17T14:21:09.797Z,97225.13
2024-01-17T14:23:37.115Z,97215.81
2024-01-17T14:26:05.652Z,97204.94
2024-01-17T14:28:33.613Z,97220.91
2024-01-17T14:31:02.416Z,97204.34
2024-01-17T14:33:29.467Z,97199.94
2024-01-17T14:35:56.476Z,97208.50
2024-01-17T14:38:23.953Z,97195.31
2024-01-17T14:40:51.243Z,97200.69
2024-01-17T14:43:21.558Z,97192.06
2024-01-17T14:45:50.697Z,97210.19
2024-01-17T14:48:18.268Z,97197.00
2024-01-17T14:50:48.509Z,97200.91
2024-01-17T14:53:16.615Z,97193.06
2024-01-17T14:55:44.234Z,97179.88
2024-01-17T14:58:16.516Z,97189.56
2024-01-17T15:00:43.954Z,97193.03
2024-01-17T15:03:12.176Z,97191.38
2024-01-17T15:05:39.919Z,97192.19
2024-01-17T15:08:07.812Z,97179.56
2024-01-17T15:10:36.238Z,97183.34
2024-01-17T15:13:09.968Z,97200.66
2024-01-17T15:15:38.690Z,97196.94
2024-01-17T15:18:09.508Z,97208.84
2024-01-17T15:20:39.020Z,97178.94
2024-01-17T15:23:08.226Z,97177.56
2024-01-17T15:25:35.744Z,97187.25
2024-01-17T15:28:05.300Z,97177.06
2024-01-17T15:30:32.893Z,97177.19
2024-01-17T15:32:59.919Z,97173.06
2024-01-17T15:35:27.560Z,97169.12
2024-01-17T15:37:56.714Z,97175.75
2024-01-17T15:40:23.699Z,97172.03
2024-01-17T15:42:50.741Z,97167.91
2024-01-17T15:45:18.934Z,97168.91
2024-01-17T15:47:46.808Z,97165.44
2024-01-17T15:50:22.034Z,97172.13
2024-01-17T15:52:49.462Z,97162.84
2024-01-17T15:55:18.317Z,97159.63
2024-01-17T15:57:45.262Z,97162.47
2024-01-17T16:00:14.632Z,97153.25
2024-01-17T16:02:42.548Z,97153.97
2024-01-17T16:05:11.350Z,97140.78
2024-01-17T16:07:42.244Z,97143.19
2024-01-17T16:10:10.987Z,97140.06
2024-01-17T16:12:39.679Z,97128.53
2024-01-17T16:15:10.715Z,97138.03
2024-01-17T16:17:38.304Z,97135.47
2024-01-17T16:20:06.753Z,97138.19
2024-01-17T16:22:35.410Z,97145.44
2024-01-17T16:25:03.539Z,97137.78
2024-01-17T16:27:32.635Z,97122.16
2024-01-17T16:30:01.166Z,97132.25
2024-01-17T16:32:30.732Z,97128.56
2024-01-17T16:34:58.408Z,97130.19
2024-01-17T16:37:26.154Z,97111.84
2024-01-17T16:39:53.938Z,97121.19
2024-01-17T16:42:21.645Z,97121.91
2024-01-17T16:44:49.144Z,97120.81
2024-01-17T16:47:16.396Z,97129.19
2024-01-17T16:49:44.107Z,97118.00
2024-01-17T16:52:15.929Z,97126.50
2024-01-17T16:54:43.645Z,97134.13
2024-01-17T16:57:12.587Z,97127.91
2024-01-17T16:59:39.600Z,97122.47
2024-01-17T17:02:07.871Z,97122.50
2024-01-17T17:04:35.127Z,97130.28
2024-01-17T17:07:05.132Z,97128.91
2024-01-17T17:09:34.240Z,97131.94
2024-01-17T17:12:04.984Z,97128.53
2024-01-17T17:14:33.950Z,97123.66
2024-01-17T17:17:01.455Z,97127.03
2024-01-17T17:19:31.189Z,97125.78
2024-01-17T17:21:58.348Z,97126.97
2024-01-17T17:24:25.507Z,97124.06
2024-01-17T17:26:52.694Z,97122.28
2024-01-17T17:29:19.996Z,97121.00
2024-01-17T17:31:47.747Z,97115.13
2024-01-17T17:34:16.156Z,97109.41
2024-01-17T17:36:44.010Z,97107.06
2024-01-17T17:39:14.760Z,97102.53
2024-01-17T17:41:43.605Z,97097.25
2024-01-17T17:44:11.573Z,97099.72
2024-01-17T17:46:38.669Z,97090.22
2024-01-17T17:49:08.759Z,97091.38
2024-01-17T17:51:36.576Z,97097.47
2024-01-17T17:54:05.290Z,97086.81
2024-01-17T17:56:32.377Z,97083.66
2024-01-17T17:59:01.480Z,97088.59
2024-01-17T18:01:28.991Z,97083.31
2024-01-17T18:03:57.820Z,97074.19
2024-01-17T18:06:24.921Z,97080.50
2024-01-17T18:08:51.993Z,97073.34
2024-01-17T18:11:19.843Z,97079.56
2024-01-17T18:13:49.774Z,97077.44
2024-01-17T18:16:24.809Z,97073.09
2024-01-17T18:18:57.394Z,97070.75
2024-01-17T18:21:25.689Z,97065.72
2024-01-17T18:23:53.262Z,97076.53
2024-01-17T18:26:20.832Z,97081.56
2024-01-17T18:28:49.329Z,97069.63
2024-01-17T18:31:17.133Z,97066.94
2024-01-17T18:33:44.215Z,97063.50
2024-01-17T18:36:11.811Z,97061.78
2024-01-17T18:38:42.045Z,97053.78
2024-01-17T18:41:12.397Z,97052.16
2024-01-17T18:43:40.989Z,97051.22
2024-01-17T18:46:09.308Z,97050.63
2024-01-17T18:48:36.883Z,97040.56
2024-01-17T18:51:04.480Z,97037.63
2024-01-17T18:53:31.459Z,97039.75
2024-01-17T18:55:59.197Z,97043.50
2024-01-17T18:58:26.427Z,97039.50
2024-01-17T19:00:55.626Z,97025.78
2024-01-17T19:03:25.959Z,97034.34
2024-01-17T19:05:56.482Z,97029.41
2024-01-17T19:08:23.524Z,97029.06
2024-01-17T19:10:50.813Z,97030.38
2024-01-17T19:13:18.912Z,97029.88
2024-01-17T19:15:47.672Z,97028.28
2024-01-17T19:18:16.464Z,97019.09
2024-01-17T19:20:43.885Z,97012.78
2024-01-17T19:23:13.878Z,97006.91
2024-01-17T19:25:40.946Z,97008.34
2024-01-17T19:28:08.248Z,97001.06
2024-01-17T19:30:38.727Z,97000.66
2024-01-17T19:33:07.299Z,97000.47
2024-01-17T19:35:34.749Z,97008.31
2024-01-17T19:38:02.016Z,97007.25
2024-01-17T19:40:31.534Z,97007.81
2024-01-17T19:43:00.134Z,97007.03
2024-01-17T19:45:27.328Z,97002.91
2024-01-17T19:47:54.709Z,97002.78
2024-01-17T19:50:22.159Z,96995.63
2024-01-17T19:52:49.191Z,96986.41
2024-01-17T19:55:18.210Z,96992.72
2024-01-17T19:57:47.643Z,96982.16
2024-01-17T20:00:28.665Z,96980.63
2024-01-17T20:02:56.801Z,96982.28
2024-01-17T20:05:24.170Z,96981.66
2024-01-17T20:07:51.539Z,96979.59
2024-01-17T20:10:18.779Z,96969.28
2024-01-17T20:12:45.795Z,96970.91
2024-01-17T20:15:13.227Z,96979.84
2024-01-17T20:17:40.493Z,96968.41
2024-01-17T20:20:07.870Z,96968.88
2024-01-17T20:22:35.150Z,96974.72
2024-01-17T20:25:02.755Z,96972.16
2024-01-17T20:27:32.931Z,96970.75
2024-01-17T20:30:00.005Z,96958.56
2024-01-17T20:32:34.814Z,96957.97
2024-01-17T20:35:04.054Z,96956.31
2024-01-17T20:37:31.359Z,96944.47
2024-01-17T20:39:58.309Z,96949.34
2024-01-17T20:42:26.602Z,96947.34
2024-01-17T20:44:53.951Z,96931.59
2024-01-17T20:47:21.520Z,96937.09
2024-01-17T20:49:48.684Z,96927.63
2024-01-17T20:52:16.009Z,96933.44
2024-01-17T20:54:42.991Z,96924.75
2024-01-17T20:57:10.025Z,96912.59
2024-01-17T20:59:37.351Z,96915.59
2024-01-17T21:02:05.054Z,96911.94
2024-01-17T21:04:32.734Z,96912.75
2024-01-17T21:07:00.023Z,96913.47
2024-01-17T21:09:28.574Z,96908.84
2024-01-17T21:11:59.377Z,96914.69
2024-01-17T21:14:26.696Z,96909.66
2024-01-17T21:16:53.713Z,96904.63
2024-01-17T21:19:20.785Z,96909.09
2024-01-17T21:21:48.014Z,96899.72
2024-01-17T21:24:15.021Z,96905.97
2024-01-17T21:26:44.404Z,96894.38
2024-01-17T21:29:13.059Z,96894.16
2024-01-17T21:31:41.306Z,96894.41
2024-01-17T21:34:08.919Z,96894.88
2024-01-17T21:36:36.488Z,96886.22
2024-01-17T21:39:06.582Z,96882.84
2024-01-17T21:41:34.140Z,96891.53
2024-01-17T21:44:01.411Z,96883.25
2024-01-17T21:46:29.155Z,96868.87
2024-01-17T21:48:56.496Z,96872.56
2024-01-17T21:51:23.867Z,96865.06
2024-01-17T21:53:50.867Z,96858.56
2024-01-17T21:56:17.825Z,96861.09
2024-01-17T21:58:45.504Z,96854.88
2024-01-17T22:01:12.988Z,96859.91
2024-01-17T22:03:40.882Z,96849.03
2024-01-17T22:06:08.560Z,96847.69
2024-01-17T22:08:47.934Z,96839.81
2024-01-17T22:11:20.786Z,96837.63
2024-01-17T22:13:49.470Z,96829.87
2024-01-17T22:16:17.214Z,96833.41
2024-01-17T22:18:44.817Z,96822.78
2024-01-17T22:21:12.332Z,96825.38
2024-01-17T22:23:41.549Z,96827.41
2024-01-17T22:26:11.766Z,96831.63
2024-01-17T22:28:39.161Z,96807.28
2024-01-17T22:31:07.984Z,96807.56
2024-01-17T22:33:36.124Z,96804.97
2024-01-17T22:36:03.965Z,96801.69
2024-01-17T22:38:30.901Z,96780.22
2024-01-17T22:40:58.118Z,96768.53
2024-01-17T22:43:25.661Z,96767.31
2024-01-17T22:45:53.297Z,96768.66
2024-01-17T22:48:21.010Z,96760.34
2024-01-17T22:50:50.910Z,96757.75
2024-01-17T22:53:19.475Z,96753.53
2024-01-17T22:55:47.152Z,96758.56
2024-01-17T22:58:14.155Z,96739.25
2024-01-17T23:04:17.518Z,96733.50
2024-01-17T23:06:45.297Z,96725.88
2024-01-17T23:09:12.394Z,96708.63
2024-01-17T23:11:39.356Z,96706.31
2024-01-17T23:14:06.645Z,96719.62
2024-01-17T23:16:33.739Z,96712.38
2024-01-17T23:19:01.135Z,96707.87
2024-01-17T23:21:28.504Z,96709.00
2024-01-17T23:23:55.546Z,96701.59
2024-01-17T23:26:22.614Z,96700.50
2024-01-17T23:28:49.957Z,96695.06
2024-01-17T23:31:16.956Z,96689.03
2024-01-17T23:33:44.144Z,96692.56
2024-01-17T23:36:12.524Z,96696.13
2024-01-17T23:38:43.158Z,96695.16
2024-01-17T23:41:10.611Z,96690.38
2024-01-17T23:43:37.871Z,96690.03
2024-01-17T23:46:06.702Z,96697.22
2024-01-17T23:48:34.248Z,96688.25
2024-01-17T23:51:01.727Z,96686.31
2024-01-17T23:53:30.631Z,96680.63
2024-01-17T23:55:57.533Z,96679.09
2024-01-17T23:58:25.850Z,96677.03
